sensor_id;sensor_type;location;lat;lon;timestamp;pressure;altitude;pressure_sealevel;temperature;humidity
1371;BME280;14306;49.942;11.570;2023-02-13T00:01:11;99628.03;;;5.39;91.19
1371;BME280;14306;49.942;11.570;2023-02-13T00:03:39;99617.78;;;5.30;91.92
1371;BME280;14306;49.942;11.570;2023-02-13T00:06:07;99617.81;;;5.23;91.27
1371;BME280;14306;49.942;11.570;2023-02-13T00:08:35;99618.50;;;5.12;92.37
1371;BME280;14306;49.942;11.570;2023-02-13T00:11:04;99621.69;;;4.83;92.45
1371;BME280;14306;49.942;11.570;2023-02-13T00:13:33;99619.44;;;4.80;92.95
1371;BME280;14306;49.942;11.570;2023-02-13T00:16:03;99611.34;;;4.93;92.72
1371;BME280;14306;49.942;11.570;2023-02-13T00:18:34;99615.00;;;5.05;92.22
1371;BME280;14306;49.942;11.570;2023-02-13T00:21:04;99608.63;;;5.00;92.39
1371;BME280;14306;49.942;11.570;2023-02-13T00:23:33;99613.31;;;4.60;93.63
1371;BME280;14306;49.942;11.570;2023-02-13T00:26:05;99619.69;;;4.66;94.47
1371;BME280;14306;49.942;11.570;2023-02-13T00:28:35;99597.16;;;4.80;92.51
1371;BME280;14306;49.942;11.570;2023-02-13T00:31:05;99594.81;;;4.90;92.64
1371;BME280;14306;49.942;11.570;2023-02-13T00:33:33;99619.22;;;4.88;92.28
1371;BME280;14306;49.942;11.570;2023-02-13T00:36:06;99613.22;;;4.86;92.44
1371;BME280;14306;49.942;11.570;2023-02-13T00:38:36;99600.63;;;4.93;92.38
1371;BME280;14306;49.942;11.570;2023-02-13T00:41:04;99621.94;;;4.75;92.21
1371;BME280;14306;49.942;11.570;2023-02-13T00:43:33;99617.69;;;4.61;91.55
1371;BME280;14306;49.942;11.570;2023-02-13T00:46:03;99624.47;;;4.57;91.75
1371;BME280;14306;49.942;11.570;2023-02-13T00:48:33;99621.34;;;4.67;91.60
1371;BME280;14306;49.942;11.570;2023-02-13T00:51:01;99621.78;;;4.57;91.97
1371;BME280;14306;49.942;11.570;2023-02-13T00:53:30;99617.47;;;4.56;92.85
1371;BME280;14306;49.942;11.570;2023-02-13T00:55:58;99618.97;;;4.39;92.80
1371;BME280;14306;49.942;11.570;2023-02-13T00:58:27;99614.06;;;4.23;94.49
1371;BME280;14306;49.942;11.570;2023-02-13T01:00:55;99616.94;;;4.02;94.43
1371;BME280;14306;49.942;11.570;2023-02-13T01:03:25;99613.16;;;4.49;93.78
1371;BME280;14306;49.942;11.570;2023-02-13T01:05:55;99617.31;;;4.45;93.20
1371;BME280;14306;49.942;11.570;2023-02-13T01:08:24;99611.34;;;4.30;93.91
1371;BME280;14306;49.942;11.570;2023-02-13T01:10:54;99615.25;;;4.34;93.71
1371;BME280;14306;49.942;11.570;2023-02-13T01:13:23;99630.50;;;4.46;93.79
1371;BME280;14306;49.942;11.570;2023-02-13T01:15:51;99624.97;;;4.15;92.81
1371;BME280;14306;49.942;11.570;2023-02-13T01:18:19;99631.78;;;4.11;94.04
1371;BME280;14306;49.942;11.570;2023-02-13T01:20:57;99627.06;;;4.00;94.05
1371;BME280;14306;49.942;11.570;2023-02-13T01:23:29;99622.09;;;4.03;93.53
1371;BME280;14306;49.942;11.570;2023-02-13T01:25:58;99631.59;;;3.99;94.47
1371;BME280;14306;49.942;11.570;2023-02-13T01:28:26;99629.91;;;4.31;92.77
1371;BME280;14306;49.942;11.570;2023-02-13T01:30:56;99617.56;;;4.04;93.20
1371;BME280;14306;49.942;11.570;2023-02-13T01:33:26;99619.59;;;3.50;94.66
1371;BME280;14306;49.942;11.570;2023-02-13T01:35:56;99621.91;;;3.85;95.38
1371;BME280;14306;49.942;11.570;2023-02-13T01:38:25;99616.53;;;3.85;93.63
1371;BME280;14306;49.942;11.570;2023-02-13T01:40:53;99620.25;;;3.78;94.13
1371;BME280;14306;49.942;11.570;2023-02-13T01:43:23;99622.66;;;3.40;95.64
1371;BME280;14306;49.942;11.570;2023-02-13T01:45:54;99614.59;;;3.14;96.14
1371;BME280;14306;49.942;11.570;2023-02-13T01:48:25;99617.56;;;3.45;95.96
1371;BME280;14306;49.942;11.570;2023-02-13T01:51:00;99615.47;;;3.41;95.63
1371;BME280;14306;49.942;11.570;2023-02-13T01:53:32;99617.50;;;3.19;95.64
1371;BME280;14306;49.942;11.570;2023-02-13T01:56:07;99611.50;;;3.11;95.54
1371;BME280;14306;49.942;11.570;2023-02-13T01:58:40;99614.41;;;3.22;95.75
1371;BME280;14306;49.942;11.570;2023-02-13T02:01:10;99608.88;;;3.50;95.13
1371;BME280;14306;49.942;11.570;2023-02-13T02:03:42;99610.56;;;3.51;94.76
1371;BME280;14306;49.942;11.570;2023-02-13T02:06:17;99610.34;;;3.59;93.82
1371;BME280;14306;49.942;11.570;2023-02-13T02:08:49;99612.59;;;3.55;93.33
1371;BME280;14306;49.942;11.570;2023-02-13T02:11:25;99604.38;;;3.50;92.15
1371;BME280;14306;49.942;11.570;2023-02-13T02:13:56;99612.53;;;3.23;92.64
1371;BME280;14306;49.942;11.570;2023-02-13T02:16:25;99603.91;;;3.34;93.09
1371;BME280;14306;49.942;11.570;2023-02-13T02:18:54;99614.38;;;3.09;94.30
1371;BME280;14306;49.942;11.570;2023-02-13T02:24:40;99609.84;;;3.10;94.40
1371;BME280;14306;49.942;11.570;2023-02-13T02:27:44;99599.06;;;2.90;94.26
1371;BME280;14306;49.942;11.570;2023-02-13T02:33:36;99612.41;;;2.77;96.16
1371;BME280;14306;49.942;11.570;2023-02-13T02:36:19;99609.44;;;3.13;94.46
1371;BME280;14306;49.942;11.570;2023-02-13T02:39:01;99618.44;;;2.92;94.14
1371;BME280;14306;49.942;11.570;2023-02-13T02:41:40;99595.56;;;2.83;95.07
1371;BME280;14306;49.942;11.570;2023-02-13T02:44:28;99611.19;;;2.86;94.40
1371;BME280;14306;49.942;11.570;2023-02-13T02:47:08;99616.38;;;2.94;94.23
1371;BME280;14306;49.942;11.570;2023-02-13T02:50:21;99616.19;;;2.96;93.85
1371;BME280;14306;49.942;11.570;2023-02-13T02:53:06;99617.63;;;2.98;94.52
1371;BME280;14306;49.942;11.570;2023-02-13T02:55:42;99609.84;;;3.10;93.71
1371;BME280;14306;49.942;11.570;2023-02-13T02:58:18;99615.09;;;2.84;93.20
1371;BME280;14306;49.942;11.570;2023-02-13T03:01:09;99619.22;;;2.39;94.57
1371;BME280;14306;49.942;11.570;2023-02-13T03:03:57;99622.25;;;2.70;94.87
1371;BME280;14306;49.942;11.570;2023-02-13T03:06:47;99610.25;;;2.53;94.38
1371;BME280;14306;49.942;11.570;2023-02-13T03:09:21;99607.66;;;2.73;95.26
1371;BME280;14306;49.942;11.570;2023-02-13T03:12:11;99605.44;;;2.83;94.20
1371;BME280;14306;49.942;11.570;2023-02-13T03:14:59;99605.78;;;2.67;93.57
1371;BME280;14306;49.942;11.570;2023-02-13T03:17:28;99600.50;;;2.86;93.80
1371;BME280;14306;49.942;11.570;2023-02-13T03:20:30;99616.72;;;2.31;94.14
1371;BME280;14306;49.942;11.570;2023-02-13T03:23:28;99609.47;;;2.25;94.49
1371;BME280;14306;49.942;11.570;2023-02-13T03:26:26;99615.25;;;2.29;94.35
1371;BME280;14306;49.942;11.570;2023-02-13T03:29:15;99604.63;;;2.42;94.36
1371;BME280;14306;49.942;11.570;2023-02-13T03:32:13;99605.81;;;2.73;94.39
1371;BME280;14306;49.942;11.570;2023-02-13T03:34:51;99617.13;;;2.75;94.15
1371;BME280;14306;49.942;11.570;2023-02-13T03:37:43;99609.09;;;2.75;93.70
1371;BME280;14306;49.942;11.570;2023-02-13T03:40:27;99610.63;;;2.91;94.23
1371;BME280;14306;49.942;11.570;2023-02-13T03:43:03;99605.03;;;2.79;93.82
1371;BME280;14306;49.942;11.570;2023-02-13T03:45:37;99614.09;;;2.44;92.79
1371;BME280;14306;49.942;11.570;2023-02-13T03:48:25;99618.53;;;2.31;94.00
1371;BME280;14306;49.942;11.570;2023-02-13T03:51:28;99618.19;;;2.40;93.93
1371;BME280;14306;49.942;11.570;2023-02-13T03:53:59;99621.75;;;2.54;93.60
1371;BME280;14306;49.942;11.570;2023-02-13T03:56:32;99617.75;;;2.77;92.67
1371;BME280;14306;49.942;11.570;2023-02-13T03:59:22;99630.56;;;2.82;92.74
1371;BME280;14306;49.942;11.570;2023-02-13T04:01:58;99623.25;;;2.63;93.22
1371;BME280;14306;49.942;11.570;2023-02-13T04:04:35;99625.59;;;2.38;94.20
1371;BME280;14306;49.942;11.570;2023-02-13T04:07:09;99629.91;;;2.39;94.59
1371;BME280;14306;49.942;11.570;2023-02-13T04:09:55;99627.22;;;2.33;94.33
1371;BME280;14306;49.942;11.570;2023-02-13T04:12:34;99613.72;;;1.86;93.68
1371;BME280;14306;49.942;11.570;2023-02-13T04:15:08;99615.41;;;2.21;94.06
1371;BME280;14306;49.942;11.570;2023-02-13T04:17:41;99620.41;;;2.71;93.49
1371;BME280;14306;49.942;11.570;2023-02-13T04:20:11;99623.34;;;2.82;92.23
1371;BME280;14306;49.942;11.570;2023-02-13T04:22:44;99619.13;;;2.60;92.71
1371;BME280;14306;49.942;11.570;2023-02-13T04:25:14;99621.03;;;2.32;92.77
1371;BME280;14306;49.942;11.570;2023-02-13T04:27:45;99616.72;;;2.31;93.79
1371;BME280;14306;49.942;11.570;2023-02-13T04:30:13;99622.28;;;2.36;93.48
1371;BME280;14306;49.942;11.570;2023-02-13T04:32:41;99623.88;;;2.31;94.00
1371;BME280;14306;49.942;11.570;2023-02-13T04:35:10;99621.28;;;2.37;93.85
1371;BME280;14306;49.942;11.570;2023-02-13T04:37:39;99620.75;;;2.21;93.35
1371;BME280;14306;49.942;11.570;2023-02-13T04:40:08;99620.50;;;2.16;92.88
1371;BME280;14306;49.942;11.570;2023-02-13T04:42:37;99629.41;;;1.95;93.44
1371;BME280;14306;49.942;11.570;2023-02-13T04:45:07;99621.06;;;2.39;93.70
1371;BME280;14306;49.942;11.570;2023-02-13T04:47:35;99625.84;;;2.50;92.78
1371;BME280;14306;49.942;11.570;2023-02-13T04:50:05;99620.63;;;2.01;92.84
1371;BME280;14306;49.942;11.570;2023-02-13T04:52:33;99621.56;;;2.21;93.29
1371;BME280;14306;49.942;11.570;2023-02-13T04:55:01;99619.88;;;2.48;93.68
1371;BME280;14306;49.942;11.570;2023-02-13T04:57:30;99620.44;;;2.37;92.96
1371;BME280;14306;49.942;11.570;2023-02-13T04:59:58;99616.94;;;2.36;92.84
1371;BME280;14306;49.942;11.570;2023-02-13T05:02:28;99619.69;;;2.15;93.39
1371;BME280;14306;49.942;11.570;2023-02-13T05:04:57;99616.53;;;2.39;93.12
1371;BME280;14306;49.942;11.570;2023-02-13T05:07:25;99601.16;;;2.41;92.68
1371;BME280;14306;49.942;11.570;2023-02-13T05:09:53;99601.91;;;2.29;93.52
1371;BME280;14306;49.942;11.570;2023-02-13T05:12:22;99610.84;;;2.49;93.70
1371;BME280;14306;49.942;11.570;2023-02-13T05:14:50;99618.88;;;2.55;92.31
1371;BME280;14306;49.942;11.570;2023-02-13T05:17:19;99614.78;;;2.19;92.87
1371;BME280;14306;49.942;11.570;2023-02-13T05:19:49;99619.38;;;2.31;94.10
1371;BME280;14306;49.942;11.570;2023-02-13T05:22:17;99623.50;;;2.34;92.35
1371;BME280;14306;49.942;11.570;2023-02-13T05:25:04;99620.38;;;1.96;92.65
1371;BME280;14306;49.942;11.570;2023-02-13T05:27:32;99624.31;;;2.00;92.16
1371;BME280;14306;49.942;11.570;2023-02-13T05:30:00;99629.19;;;2.24;92.24
1371;BME280;14306;49.942;11.570;2023-02-13T05:32:29;99624.75;;;1.76;93.22
1371;BME280;14306;49.942;11.570;2023-02-13T05:34:59;99615.19;;;1.67;93.79
1371;BME280;14306;49.942;11.570;2023-02-13T05:37:30;99612.41;;;2.03;93.88
1371;BME280;14306;49.942;11.570;2023-02-13T05:39:59;99611.22;;;2.12;93.32
1371;BME280;14306;49.942;11.570;2023-02-13T05:42:27;99614.44;;;2.35;92.33
1371;BME280;14306;49.942;11.570;2023-02-13T05:44:55;99630.22;;;2.23;92.41
1371;BME280;14306;49.942;11.570;2023-02-13T05:47:24;99630.72;;;2.06;93.29
1371;BME280;14306;49.942;11.570;2023-02-13T05:49:52;99619.84;;;2.07;92.93
1371;BME280;14306;49.942;11.570;2023-02-13T05:52:22;99627.16;;;2.26;93.28
1371;BME280;14306;49.942;11.570;2023-02-13T05:54:51;99622.91;;;2.38;92.25
1371;BME280;14306;49.942;11.570;2023-02-13T05:57:19;99630.72;;;2.06;92.03
1371;BME280;14306;49.942;11.570;2023-02-13T05:59:48;99624.72;;;2.04;92.69
1371;BME280;14306;49.942;11.570;2023-02-13T06:02:16;99629.31;;;1.82;93.41
1371;BME280;14306;49.942;11.570;2023-02-13T06:04:45;99625.75;;;2.03;93.20
1371;BME280;14306;49.942;11.570;2023-02-13T06:07:14;99635.38;;;1.97;93.09
1371;BME280;14306;49.942;11.570;2023-02-13T06:09:44;99627.13;;;1.92;93.45
1371;BME280;14306;49.942;11.570;2023-02-13T06:12:13;99640.63;;;2.12;92.50
1371;BME280;14306;49.942;11.570;2023-02-13T06:14:41;99640.28;;;1.94;93.66
1371;BME280;14306;49.942;11.570;2023-02-13T06:17:11;99645.34;;;2.10;93.71
1371;BME280;14306;49.942;11.570;2023-02-13T06:19:40;99643.41;;;2.25;92.47
1371;BME280;14306;49.942;11.570;2023-02-13T06:22:08;99652.81;;;2.21;92.82
1371;BME280;14306;49.942;11.570;2023-02-13T06:24:37;99644.28;;;2.04;93.25
1371;BME280;14306;49.942;11.570;2023-02-13T06:27:07;99655.16;;;2.30;93.00
1371;BME280;14306;49.942;11.570;2023-02-13T06:29:35;99658.47;;;2.05;92.73
1371;BME280;14306;49.942;11.570;2023-02-13T06:32:04;99660.78;;;1.87;94.25
1371;BME280;14306;49.942;11.570;2023-02-13T06:34:32;99664.16;;;1.95;93.12
1371;BME280;14306;49.942;11.570;2023-02-13T06:37:01;99661.59;;;1.45;93.55
1371;BME280;14306;49.942;11.570;2023-02-13T06:39:29;99658.19;;;1.72;93.42
1371;BME280;14306;49.942;11.570;2023-02-13T06:41:58;99666.25;;;1.79;93.29
1371;BME280;14306;49.942;11.570;2023-02-13T06:44:28;99668.81;;;2.14;92.04
1371;BME280;14306;49.942;11.570;2023-02-13T06:46:56;99674.53;;;2.11;92.75
1371;BME280;14306;49.942;11.570;2023-02-13T06:49:24;99674.28;;;2.34;92.43
1371;BME280;14306;49.942;11.570;2023-02-13T06:51:53;99660.66;;;2.22;92.68
1371;BME280;14306;49.942;11.570;2023-02-13T06:54:21;99671.50;;;1.93;92.75
1371;BME280;14306;49.942;11.570;2023-02-13T06:57:09;99673.34;;;1.93;93.54
1371;BME280;14306;49.942;11.570;2023-02-13T06:59:40;99678.09;;;2.18;93.70
1371;BME280;14306;49.942;11.570;2023-02-13T07:02:08;99672.16;;;2.23;92.81
1371;BME280;14306;49.942;11.570;2023-02-13T07:04:37;99683.78;;;2.70;92.62
1371;BME280;14306;49.942;11.570;2023-02-13T07:07:06;99684.97;;;2.61;91.60
1371;BME280;14306;49.942;11.570;2023-02-13T07:09:35;99683.31;;;2.60;91.82
1371;BME280;14306;49.942;11.570;2023-02-13T07:12:04;99686.59;;;2.62;91.95
1371;BME280;14306;49.942;11.570;2023-02-13T07:14:33;99683.41;;;2.46;92.10
1371;BME280;14306;49.942;11.570;2023-02-13T07:17:04;99688.34;;;2.76;92.40
1371;BME280;14306;49.942;11.570;2023-02-13T07:19:32;99689.06;;;2.57;92.09
1371;BME280;14306;49.942;11.570;2023-02-13T07:22:01;99679.88;;;2.39;92.84
1371;BME280;14306;49.942;11.570;2023-02-13T07:24:30;99688.53;;;2.13;92.71
1371;BME280;14306;49.942;11.570;2023-02-13T07:27:01;99677.13;;;2.26;93.08
1371;BME280;14306;49.942;11.570;2023-02-13T07:29:30;99682.84;;;2.23;93.06
1371;BME280;14306;49.942;11.570;2023-02-13T07:31:59;99680.47;;;2.07;94.51
1371;BME280;14306;49.942;11.570;2023-02-13T07:34:29;99680.06;;;2.10;93.37
1371;BME280;14306;49.942;11.570;2023-02-13T07:36:57;99682.00;;;1.95;93.28
1371;BME280;14306;49.942;11.570;2023-02-13T07:39:25;99689.75;;;2.72;93.39
1371;BME280;14306;49.942;11.570;2023-02-13T07:41:54;99696.88;;;2.93;92.21
1371;BME280;14306;49.942;11.570;2023-02-13T07:44:23;99692.72;;;2.90;91.95
1371;BME280;14306;49.942;11.570;2023-02-13T07:46:51;99693.03;;;3.15;90.82
1371;BME280;14306;49.942;11.570;2023-02-13T07:49:20;99689.56;;;3.14;89.11
1371;BME280;14306;49.942;11.570;2023-02-13T07:51:50;99695.06;;;3.06;89.35
1371;BME280;14306;49.942;11.570;2023-02-13T07:54:18;99694.63;;;3.03;90.40
1371;BME280;14306;49.942;11.570;2023-02-13T07:56:47;99693.78;;;2.96;90.96
1371;BME280;14306;49.942;11.570;2023-02-13T07:59:16;99691.00;;;3.17;89.46
1371;BME280;14306;49.942;11.570;2023-02-13T08:01:44;99692.66;;;3.31;89.19
1371;BME280;14306;49.942;11.570;2023-02-13T08:04:13;99697.13;;;3.04;90.73
1371;BME280;14306;49.942;11.570;2023-02-13T08:06:42;99693.13;;;2.87;91.25
1371;BME280;14306;49.942;11.570;2023-02-13T08:09:18;99688.22;;;2.57;91.23
1371;BME280;14306;49.942;11.570;2023-02-13T08:12:07;99685.63;;;3.10;91.04
1371;BME280;14306;49.942;11.570;2023-02-13T08:14:36;99674.59;;;2.86;90.99
1371;BME280;14306;49.942;11.570;2023-02-13T08:17:05;99677.31;;;2.58;90.65
1371;BME280;14306;49.942;11.570;2023-02-13T08:19:33;99677.03;;;2.81;89.61
1371;BME280;14306;49.942;11.570;2023-02-13T08:22:02;99683.47;;;3.53;89.45
1371;BME280;14306;49.942;11.570;2023-02-13T08:24:32;99677.06;;;3.34;88.52
1371;BME280;14306;49.942;11.570;2023-02-13T08:27:01;99678.22;;;2.72;91.17
1371;BME280;14306;49.942;11.570;2023-02-13T08:29:30;99687.88;;;3.13;92.16
1371;BME280;14306;49.942;11.570;2023-02-13T08:32:01;99679.44;;;3.16;90.99
1371;BME280;14306;49.942;11.570;2023-02-13T08:34:29;99680.16;;;2.91;92.95
1371;BME280;14306;49.942;11.570;2023-02-13T08:36:57;99687.59;;;2.89;92.01
1371;BME280;14306;49.942;11.570;2023-02-13T08:39:26;99694.25;;;3.79;92.79
1371;BME280;14306;49.942;11.570;2023-02-13T08:41:55;99692.59;;;3.78;89.63
1371;BME280;14306;49.942;11.570;2023-02-13T08:44:23;99677.13;;;3.80;88.52
1371;BME280;14306;49.942;11.570;2023-02-13T08:46:52;99689.75;;;4.18;88.00
1371;BME280;14306;49.942;11.570;2023-02-13T08:49:21;99686.22;;;4.05;88.53
1371;BME280;14306;49.942;11.570;2023-02-13T08:51:50;99689.91;;;4.30;88.86
1371;BME280;14306;49.942;11.570;2023-02-13T08:54:18;99685.19;;;4.26;88.43
1371;BME280;14306;49.942;11.570;2023-02-13T08:56:47;99686.63;;;4.35;88.01
1371;BME280;14306;49.942;11.570;2023-02-13T08:59:17;99680.66;;;4.39;88.43
1371;BME280;14306;49.942;11.570;2023-02-13T09:01:45;99681.28;;;3.95;88.64
1371;BME280;14306;49.942;11.570;2023-02-13T09:04:14;99687.44;;;4.61;89.69
1371;BME280;14306;49.942;11.570;2023-02-13T09:06:44;99692.13;;;4.72;87.51
1371;BME280;14306;49.942;11.570;2023-02-13T09:09:12;99691.31;;;4.72;88.64
1371;BME280;14306;49.942;11.570;2023-02-13T09:11:42;99694.16;;;4.83;86.83
1371;BME280;14306;49.942;11.570;2023-02-13T09:14:10;99687.09;;;5.08;84.55
1371;BME280;14306;49.942;11.570;2023-02-13T09:16:43;99694.47;;;5.19;85.23
1371;BME280;14306;49.942;11.570;2023-02-13T09:19:11;99693.75;;;5.43;83.81
1371;BME280;14306;49.942;11.570;2023-02-13T09:21:40;99694.28;;;5.14;84.93
1371;BME280;14306;49.942;11.570;2023-02-13T09:24:09;99703.16;;;5.15;84.72
1371;BME280;14306;49.942;11.570;2023-02-13T09:26:37;99696.66;;;5.73;84.32
1371;BME280;14306;49.942;11.570;2023-02-13T09:29:06;99688.50;;;5.55;85.16
1371;BME280;14306;49.942;11.570;2023-02-13T09:31:35;99688.06;;;6.44;81.53
1371;BME280;14306;49.942;11.570;2023-02-13T09:34:05;99684.28;;;6.03;80.57
1371;BME280;14306;49.942;11.570;2023-02-13T09:36:34;99692.63;;;5.57;84.39
1371;BME280;14306;49.942;11.570;2023-02-13T09:42:44;99693.03;;;6.23;84.39
1371;BME280;14306;49.942;11.570;2023-02-13T09:45:15;99691.88;;;6.12;83.19
1371;BME280;14306;49.942;11.570;2023-02-13T09:47:47;99701.97;;;6.66;79.65
1371;BME280;14306;49.942;11.570;2023-02-13T09:50:22;99696.88;;;6.33;81.99
1371;BME280;14306;49.942;11.570;2023-02-13T09:52:54;99699.75;;;5.76;82.77
1371;BME280;14306;49.942;11.570;2023-02-13T09:55:30;99699.19;;;6.30;82.45
1371;BME280;14306;49.942;11.570;2023-02-13T09:58:07;99704.91;;;7.00;76.77
1371;BME280;14306;49.942;11.570;2023-02-13T10:00:40;99709.53;;;6.93;77.66
1371;BME280;14306;49.942;11.570;2023-02-13T10:03:19;99708.09;;;6.30;83.08
1371;BME280;14306;49.942;11.570;2023-02-13T10:05:56;99713.19;;;6.99;81.61
1371;BME280;14306;49.942;11.570;2023-02-13T10:08:46;99718.88;;;8.04;78.29
1371;BME280;14306;49.942;11.570;2023-02-13T10:11:31;99706.31;;;7.21;78.02
1371;BME280;14306;49.942;11.570;2023-02-13T10:14:09;99718.91;;;7.09;77.32
1371;BME280;14306;49.942;11.570;2023-02-13T10:16:45;99707.72;;;7.05;78.88
1371;BME280;14306;49.942;11.570;2023-02-13T10:19:26;99709.94;;;7.62;82.68
1371;BME280;14306;49.942;11.570;2023-02-13T10:22:04;99719.13;;;8.55;75.93
1371;BME280;14306;49.942;11.570;2023-02-13T10:24:37;99711.63;;;7.75;79.56
1371;BME280;14306;49.942;11.570;2023-02-13T10:27:17;99708.56;;;7.71;75.78
1371;BME280;14306;49.942;11.570;2023-02-13T10:29:54;99713.13;;;8.00;78.45
1371;BME280;14306;49.942;11.570;2023-02-13T10:32:47;99707.81;;;8.24;73.09
1371;BME280;14306;49.942;11.570;2023-02-13T10:35:20;99696.84;;;7.48;74.14
1371;BME280;14306;49.942;11.570;2023-02-13T10:37:54;99688.84;;;7.59;74.27
1371;BME280;14306;49.942;11.570;2023-02-13T10:40:30;99696.81;;;7.18;73.28
1371;BME280;14306;49.942;11.570;2023-02-13T10:43:05;99697.13;;;6.92;76.37
1371;BME280;14306;49.942;11.570;2023-02-13T10:45:50;99684.66;;;6.55;77.41
1371;BME280;14306;49.942;11.570;2023-02-13T10:48:32;99688.19;;;6.31;81.58
1371;BME280;14306;49.942;11.570;2023-02-13T10:51:07;99681.31;;;6.96;79.76
1371;BME280;14306;49.942;11.570;2023-02-13T10:53:51;99684.53;;;7.70;77.18
1371;BME280;14306;49.942;11.570;2023-02-13T10:56:29;99678.91;;;7.71;76.91
1371;BME280;14306;49.942;11.570;2023-02-13T10:59:10;99677.47;;;8.10;75.68
1371;BME280;14306;49.942;11.570;2023-02-13T11:01:45;99674.84;;;8.22;74.81
1371;BME280;14306;49.942;11.570;2023-02-13T11:04:17;99681.78;;;8.75;70.16
1371;BME280;14306;49.942;11.570;2023-02-13T11:06:53;99673.13;;;7.68;72.68
1371;BME280;14306;49.942;11.570;2023-02-13T11:09:24;99672.59;;;7.77;76.17
1371;BME280;14306;49.942;11.570;2023-02-13T11:11:53;99676.28;;;7.35;79.52
1371;BME280;14306;49.942;11.570;2023-02-13T11:14:23;99678.13;;;8.24;72.41
1371;BME280;14306;49.942;11.570;2023-02-13T11:16:55;99675.72;;;8.04;77.84
1371;BME280;14306;49.942;11.570;2023-02-13T11:19:30;99666.03;;;8.26;75.31
1371;BME280;14306;49.942;11.570;2023-02-13T11:22:03;99676.84;;;9.35;68.94
1371;BME280;14306;49.942;11.570;2023-02-13T11:24:33;99665.44;;;8.82;72.00
1371;BME280;14306;49.942;11.570;2023-02-13T11:27:04;99672.91;;;9.14;70.73
1371;BME280;14306;49.942;11.570;2023-02-13T11:29:36;99675.44;;;9.32;67.40
1371;BME280;14306;49.942;11.570;2023-02-13T11:32:21;99676.53;;;9.20;70.59
1371;BME280;14306;49.942;11.570;2023-02-13T11:34:50;99666.06;;;9.63;70.71
1371;BME280;14306;49.942;11.570;2023-02-13T11:37:25;99671.09;;;9.71;69.33
1371;BME280;14306;49.942;11.570;2023-02-13T11:39:56;99665.28;;;9.79;65.71
1371;BME280;14306;49.942;11.570;2023-02-13T11:42:28;99672.28;;;9.35;69.02
1371;BME280;14306;49.942;11.570;2023-02-13T11:45:02;99671.13;;;10.04;68.71
1371;BME280;14306;49.942;11.570;2023-02-13T11:47:36;99672.31;;;10.24;68.54
1371;BME280;14306;49.942;11.570;2023-02-13T11:50:19;99668.47;;;10.53;66.29
1371;BME280;14306;49.942;11.570;2023-02-13T11:52:58;99660.75;;;10.12;64.87
1371;BME280;14306;49.942;11.570;2023-02-13T11:55:33;99651.69;;;9.62;66.04
1371;BME280;14306;49.942;11.570;2023-02-13T11:58:03;99645.56;;;9.39;66.07
1371;BME280;14306;49.942;11.570;2023-02-13T12:00:33;99641.63;;;8.79;67.83
1371;BME280;14306;49.942;11.570;2023-02-13T12:03:26;99640.06;;;8.13;71.27
1371;BME280;14306;49.942;11.570;2023-02-13T12:06:03;99647.34;;;8.82;68.94
1371;BME280;14306;49.942;11.570;2023-02-13T12:08:34;99641.28;;;8.52;69.53
1371;BME280;14306;49.942;11.570;2023-02-13T12:11:19;99634.66;;;8.13;69.59
1371;BME280;14306;49.942;11.570;2023-02-13T12:13:50;99631.53;;;8.28;70.25
1371;BME280;14306;49.942;11.570;2023-02-13T12:16:25;99623.47;;;7.75;72.22
1371;BME280;14306;49.942;11.570;2023-02-13T12:18:59;99613.56;;;7.28;73.48
1371;BME280;14306;49.942;11.570;2023-02-13T12:21:40;99614.03;;;7.55;74.29
1371;BME280;14306;49.942;11.570;2023-02-13T12:24:20;99611.13;;;7.68;74.63
1371;BME280;14306;49.942;11.570;2023-02-13T12:27:04;99607.53;;;7.97;73.79
1371;BME280;14306;49.942;11.570;2023-02-13T12:29:50;99615.38;;;7.87;72.94
1371;BME280;14306;49.942;11.570;2023-02-13T12:32:23;99610.03;;;7.57;74.26
1371;BME280;14306;49.942;11.570;2023-02-13T12:35:09;99604.38;;;7.47;74.74
1371;BME280;14306;49.942;11.570;2023-02-13T12:37:55;99602.16;;;7.97;73.68
1371;BME280;14306;49.942;11.570;2023-02-13T12:40:44;99594.47;;;7.71;74.35
1371;BME280;14306;49.942;11.570;2023-02-13T12:43:40;99580.94;;;7.48;74.74
1371;BME280;14306;49.942;11.570;2023-02-13T12:46:21;99579.22;;;7.65;74.07
1371;BME280;14306;49.942;11.570;2023-02-13T12:48:58;99582.00;;;7.47;76.43
1371;BME280;14306;49.942;11.570;2023-02-13T12:51:43;99578.66;;;7.74;74.80
1371;BME280;14306;49.942;11.570;2023-02-13T12:54:30;99578.66;;;7.74;74.79
1371;BME280;14306;49.942;11.570;2023-02-13T12:57:21;99582.56;;;8.13;73.42
1371;BME280;14306;49.942;11.570;2023-02-13T13:00:02;99577.28;;;8.41;73.10
1371;BME280;14306;49.942;11.570;2023-02-13T13:03:01;99575.41;;;7.95;74.46
1371;BME280;14306;49.942;11.570;2023-02-13T13:05:50;99573.44;;;8.26;74.67
1371;BME280;14306;49.942;11.570;2023-02-13T13:08:49;99572.84;;;8.24;74.05
1371;BME280;14306;49.942;11.570;2023-02-13T13:11:32;99569.69;;;8.38;73.62
1371;BME280;14306;49.942;11.570;2023-02-13T13:14:09;99557.81;;;8.28;73.94
1371;BME280;14306;49.942;11.570;2023-02-13T13:16:50;99558.03;;;8.61;72.94
1371;BME280;14306;49.942;11.570;2023-02-13T13:19:30;99558.28;;;8.36;74.16
1371;BME280;14306;49.942;11.570;2023-02-13T13:22:03;99556.41;;;8.48;73.67
1371;BME280;14306;49.942;11.570;2023-02-13T13:24:41;99552.66;;;8.89;72.67
1371;BME280;14306;49.942;11.570;2023-02-13T13:27:19;99561.50;;;8.84;71.91
1371;BME280;14306;49.942;11.570;2023-02-13T13:29:53;99560.53;;;8.90;71.88
1371;BME280;14306;49.942;11.570;2023-02-13T13:32:25;99563.84;;;8.81;72.68
1371;BME280;14306;49.942;11.570;2023-02-13T13:34:55;99561.19;;;9.09;71.48
1371;BME280;14306;49.942;11.570;2023-02-13T13:37:29;99555.50;;;9.10;71.78
1371;BME280;14306;49.942;11.570;2023-02-13T13:40:04;99560.44;;;9.13;72.06
1371;BME280;14306;49.942;11.570;2023-02-13T13:42:39;99554.50;;;9.00;71.84
1371;BME280;14306;49.942;11.570;2023-02-13T13:45:24;99557.59;;;9.20;72.23
1371;BME280;14306;49.942;11.570;2023-02-13T13:48:30;99555.78;;;9.09;72.81
1371;BME280;14306;49.942;11.570;2023-02-13T13:51:04;99552.41;;;9.18;72.57
1371;BME280;14306;49.942;11.570;2023-02-13T13:53:33;99547.69;;;8.97;72.75
1371;BME280;14306;49.942;11.570;2023-02-13T13:56:04;99548.22;;;9.11;73.18